Ashley, Indiana
Current Conditions -  °F | °C
As of 7:15 AM on Sunday 21 Dec 2014 (Local Time) from KANQ Reporting Station
Overcast Overcast  
Wind Chill: 28°   Ceiling: 5500
Heat Index: 28°   Visibility: 4mi
Dew Point: 27°   Wind: 3mph
Humidity: 93%   Direction: 170°S
Pressure: 30.27"   Gusts: NA
Location:  41.53°N, 85.07°W
Report Text: KANQ 211215Z AUTO 17003KT 4SM OVC055 M02/M03 A3027 RMK
Loading
Personal Weather Stations






























Interactive Weather Map New forecast layout! Learn more

10-Day Weather Forecast

Advertisements
Track Severe Weather on mobile